Time;durP1;ratioP1;P1;durP2;ratioP2;P2;SDS_P1;SDS_P2;PMS_P1;PMS_P2;Temp;Humidity;BMP_temperature;BMP_pressure;BME280_temperature;BME280_humidity;BME280_pressure;Samples;Min_cycle;Max_cycle;Signal;HPM_P1;HPM_P2
2022/04/20 00:00:56;;;;;;;0.65;0.65;;;3.40;99.90;;;;;;4957528;28;20208;-87
2022/04/20 00:03:22;;;;;;;0.80;0.80;;;3.30;99.90;;;;;;4970942;28;20208;-87
2022/04/20 00:05:47;;;;;;;0.80;0.80;;;3.20;99.90;;;;;;4955437;28;20735;-87
2022/04/20 00:08:13;;;;;;;0.65;0.65;;;3.10;99.90;;;;;;4958270;28;20203;-87
2022/04/20 00:10:39;;;;;;;0.80;0.80;;;3.00;99.90;;;;;;4957802;28;20207;-87
2022/04/20 00:13:05;;;;;;;0.90;0.90;;;3.00;99.90;;;;;;4975583;28;20207;-88
2022/04/20 00:15:30;;;;;;;0.75;0.75;;;2.90;99.90;;;;;;4975328;28;20331;-88
2022/04/20 00:17:56;;;;;;;0.75;0.75;;;2.80;99.90;;;;;;4973143;28;20245;-87
2022/04/20 00:20:22;;;;;;;0.80;0.80;;;2.70;99.90;;;;;;4975361;28;20200;-87
2022/04/20 00:22:48;;;;;;;0.60;0.60;;;2.70;99.90;;;;;;4954851;29;20207;-87
2022/04/20 00:25:13;;;;;;;0.80;0.80;;;2.70;99.90;;;;;;4954845;29;20224;-87
2022/04/20 00:27:39;;;;;;;0.60;0.60;;;2.60;99.90;;;;;;4982658;28;20306;-87
2022/04/20 00:30:08;;;;;;;0.70;0.70;;;2.60;99.90;;;;;;4975437;28;20196;-87
2022/04/20 00:32:35;;;;;;;0.70;0.70;;;2.50;99.90;;;;;;4973843;28;20567;-86
2022/04/20 00:35:01;;;;;;;0.80;0.80;;;2.50;99.90;;;;;;4974401;28;20710;-87
2022/04/20 00:37:27;;;;;;;0.70;0.70;;;2.50;99.90;;;;;;4973897;28;20196;-88
2022/04/20 00:39:53;;;;;;;0.75;0.75;;;2.40;99.90;;;;;;4958685;28;20609;-87
2022/04/20 00:42:23;;;;;;;0.80;0.80;;;2.40;99.90;;;;;;4957933;28;20215;-87
2022/04/20 00:44:52;;;;;;;0.80;0.80;;;2.50;99.90;;;;;;4957830;28;20672;-88
2022/04/20 00:47:18;;;;;;;0.70;0.70;;;2.50;99.90;;;;;;4975035;28;20211;-87
2022/04/20 00:49:46;;;;;;;0.70;0.70;;;2.50;99.90;;;;;;4957911;28;20659;-87
2022/04/20 00:52:12;;;;;;;0.60;0.60;;;2.50;99.90;;;;;;4958937;28;20683;-87
2022/04/20 00:54:38;;;;;;;0.63;0.63;;;2.50;99.90;;;;;;4979060;28;20204;-86
2022/04/20 00:57:05;;;;;;;0.70;0.70;;;2.60;99.90;;;;;;4962061;28;20206;-86
2022/04/20 00:59:32;;;;;;;0.60;0.60;;;2.60;99.90;;;;;;4961557;28;20203;-87
2022/04/20 01:01:59;;;;;;;0.80;0.80;;;2.60;99.90;;;;;;4960964;28;20211;-83
2022/04/20 01:04:25;;;;;;;0.70;0.70;;;2.60;99.90;;;;;;4960027;28;20212;-83
2022/04/20 01:06:51;;;;;;;0.80;0.80;;;2.60;99.90;;;;;;4978160;28;20249;-83
2022/04/20 01:09:17;;;;;;;0.70;0.70;;;2.50;99.90;;;;;;4976631;28;20725;-83
2022/04/20 01:11:45;;;;;;;0.60;0.60;;;2.40;99.90;;;;;;4977131;28;20196;-83
2022/04/20 01:14:11;;;;;;;0.80;0.80;;;2.40;99.90;;;;;;4977314;28;20196;-83
2022/04/20 01:16:37;;;;;;;0.80;0.80;;;2.30;99.90;;;;;;4973033;28;20235;-83
2022/04/20 01:19:03;;;;;;;0.60;0.60;;;2.20;99.90;;;;;;4941113;29;20287;-83
2022/04/20 01:21:29;;;;;;;0.70;0.70;;;2.10;99.90;;;;;;4941177;29;20201;-83
2022/04/20 01:23:55;;;;;;;0.80;0.80;;;2.10;99.90;;;;;;4958580;29;20197;-83
2022/04/20 01:26:21;;;;;;;0.80;0.80;;;2.00;99.90;;;;;;4940956;29;20216;-83
2022/04/20 01:28:48;;;;;;;0.85;0.85;;;1.90;99.90;;;;;;4958363;29;20193;-83
2022/04/20 01:31:17;;;;;;;0.70;0.70;;;1.90;99.90;;;;;;4958373;28;20208;-83
2022/04/20 01:33:44;;;;;;;0.80;0.80;;;1.80;99.90;;;;;;4940811;29;20328;-83
2022/04/20 01:36:11;;;;;;;0.70;0.70;;;1.80;99.90;;;;;;4941210;29;20208;-83
2022/04/20 01:38:39;;;;;;;0.70;0.70;;;1.70;99.90;;;;;;4940109;29;20201;-83
2022/04/20 01:41:06;;;;;;;0.60;0.60;;;1.70;99.90;;;;;;4958139;29;20220;-82
2022/04/20 01:43:32;;;;;;;0.60;0.60;;;1.70;99.90;;;;;;4957981;29;20252;-83
2022/04/20 01:45:58;;;;;;;0.70;0.70;;;1.70;99.90;;;;;;4958225;29;20217;-83
2022/04/20 01:48:23;;;;;;;0.70;0.70;;;1.60;99.90;;;;;;4940707;29;20199;-83
2022/04/20 01:53:33;;;;;;;0.50;0.50;;;1.70;99.90;;;;;;4958128;29;20200;-83
2022/04/20 01:56:00;;;;;;;0.65;0.65;;;1.70;99.90;;;;;;4940614;29;20197;-84
2022/04/20 01:58:27;;;;;;;0.65;0.65;;;1.80;99.90;;;;;;4940504;29;20208;-84
2022/04/20 02:00:52;;;;;;;0.63;0.63;;;1.80;99.90;;;;;;4944947;28;20207;-84
2022/04/20 02:03:18;;;;;;;0.60;0.60;;;1.80;99.90;;;;;;4975410;28;20271;-84
2022/04/20 02:05:44;;;;;;;0.70;0.70;;;1.90;99.90;;;;;;4940209;29;20212;-84
2022/04/20 02:08:10;;;;;;;0.70;0.70;;;1.90;99.90;;;;;;4940551;29;20197;-84
2022/04/20 02:10:36;;;;;;;0.60;0.60;;;1.90;99.90;;;;;;4956185;28;20199;-84
2022/04/20 02:13:02;;;;;;;0.70;0.70;;;1.90;99.90;;;;;;4957542;29;20596;-85
2022/04/20 02:15:28;;;;;;;0.60;0.60;;;1.90;99.90;;;;;;4939552;29;20205;-84
2022/04/20 02:17:54;;;;;;;0.80;0.80;;;1.80;99.90;;;;;;4955633;28;20231;-84
2022/04/20 02:20:20;;;;;;;0.90;0.90;;;1.70;99.90;;;;;;4976648;28;20235;-84
2022/04/20 02:22:46;;;;;;;0.80;0.80;;;1.70;99.90;;;;;;4983014;28;20203;-83
2022/04/20 02:25:11;;;;;;;0.70;0.70;;;1.60;99.90;;;;;;4995030;28;20198;-84
2022/04/20 02:27:37;;;;;;;0.75;0.75;;;1.60;99.90;;;;;;4994513;28;20198;-84
2022/04/20 02:30:04;;;;;;;0.70;0.70;;;1.50;99.90;;;;;;4978416;28;20203;-84
2022/04/20 02:32:30;;;;;;;0.52;0.52;;;1.40;99.90;;;;;;4978355;28;20250;-84
2022/04/20 02:34:55;;;;;;;0.70;0.70;;;1.40;99.90;;;;;;4978712;28;20305;-84
2022/04/20 02:37:22;;;;;;;0.70;0.70;;;1.30;99.90;;;;;;4978072;28;20200;-84
2022/04/20 02:39:49;;;;;;;0.65;0.65;;;1.30;99.90;;;;;;4978290;28;20199;-84
2022/04/20 02:42:16;;;;;;;0.70;0.70;;;1.20;99.90;;;;;;4978053;28;20314;-84
2022/04/20 02:44:43;;;;;;;0.60;0.60;;;1.20;99.90;;;;;;4994660;28;20261;-84
2022/04/20 02:47:09;;;;;;;0.70;0.70;;;1.10;99.90;;;;;;4978212;28;20212;-83
2022/04/20 02:49:35;;;;;;;0.60;0.60;;;1.10;99.90;;;;;;4977350;28;20200;-84
2022/04/20 02:52:01;;;;;;;0.70;0.70;;;1.10;99.90;;;;;;4977863;28;20284;-84
2022/04/20 02:54:27;;;;;;;0.70;0.70;;;1.10;99.90;;;;;;4995802;28;20282;-84
2022/04/20 02:56:53;;;;;;;0.60;0.60;;;1.10;99.90;;;;;;4995510;28;20210;-84
2022/04/20 02:59:19;;;;;;;1.23;1.13;;;1.10;99.90;;;;;;4995509;28;20282;-84
2022/04/20 03:01:44;;;;;;;0.80;0.80;;;1.10;99.90;;;;;;4994414;28;20242;-83
2022/04/20 03:04:11;;;;;;;0.90;0.90;;;1.10;99.90;;;;;;4995196;28;20204;-83
2022/04/20 03:06:37;;;;;;;0.60;0.60;;;1.00;99.90;;;;;;4994230;28;20623;-83
2022/04/20 03:09:03;;;;;;;0.80;0.80;;;1.00;99.90;;;;;;4995197;28;20211;-83
2022/04/20 03:11:29;;;;;;;0.90;0.90;;;0.90;99.90;;;;;;4994957;28;20191;-83
2022/04/20 03:13:56;;;;;;;1.00;1.00;;;0.90;99.90;;;;;;4993751;28;20222;-83
2022/04/20 03:16:22;;;;;;;0.70;0.70;;;0.80;99.90;;;;;;4993928;28;20199;-83
2022/04/20 03:18:48;;;;;;;0.70;0.70;;;0.80;99.90;;;;;;4995605;28;20210;-84
2022/04/20 03:21:16;;;;;;;0.60;0.60;;;0.70;99.90;;;;;;4993994;28;20562;-84
2022/04/20 03:23:42;;;;;;;0.80;0.80;;;0.70;99.90;;;;;;4992396;28;20210;-86
2022/04/20 03:26:08;;;;;;;0.80;0.80;;;0.70;99.90;;;;;;4977648;28;20623;-84
2022/04/20 03:28:34;;;;;;;0.80;0.80;;;0.70;99.90;;;;;;4995086;28;20274;-84
2022/04/20 03:31:00;;;;;;;0.80;0.80;;;0.70;99.90;;;;;;4977507;28;20246;-84
2022/04/20 03:33:27;;;;;;;0.70;0.70;;;0.70;99.90;;;;;;4994589;28;20663;-84
2022/04/20 03:35:53;;;;;;;0.70;0.70;;;0.70;99.90;;;;;;4977434;28;20722;-84
2022/04/20 03:38:19;;;;;;;0.80;0.80;;;0.70;99.90;;;;;;4994818;28;20196;-84
2022/04/20 03:40:45;;;;;;;0.80;0.80;;;0.70;99.90;;;;;;4994536;28;20200;-84
2022/04/20 03:43:11;;;;;;;0.70;0.70;;;0.60;99.90;;;;;;4994818;28;20291;-85
2022/04/20 03:45:37;;;;;;;0.63;0.63;;;0.70;99.90;;;;;;4976948;28;20286;-84
2022/04/20 03:48:04;;;;;;;0.60;0.60;;;0.60;99.90;;;;;;4977245;28;20215;-84
2022/04/20 03:50:30;;;;;;;0.70;0.70;;;0.60;99.90;;;;;;4976875;28;20206;-85
2022/04/20 03:52:56;;;;;;;0.75;0.75;;;0.60;99.90;;;;;;4977117;28;20199;-84
2022/04/20 03:55:21;;;;;;;0.70;0.70;;;0.60;99.90;;;;;;4994353;28;20565;-84
2022/04/20 03:57:47;;;;;;;0.80;0.80;;;0.60;99.90;;;;;;4976195;28;20294;-84
2022/04/20 04:00:14;;;;;;;2.47;1.55;;;0.60;99.90;;;;;;4993313;28;20235;-84
2022/04/20 04:02:40;;;;;;;0.80;0.80;;;0.60;99.90;;;;;;4992700;28;20203;-84
2022/04/20 04:05:06;;;;;;;0.60;0.60;;;0.60;99.90;;;;;;4994286;28;20269;-84
2022/04/20 04:07:32;;;;;;;0.70;0.70;;;0.60;99.90;;;;;;4991413;28;20196;-84
2022/04/20 04:09:57;;;;;;;0.65;0.65;;;0.60;99.90;;;;;;4993081;28;20298;-84
2022/04/20 04:12:24;;;;;;;0.70;0.70;;;0.60;99.90;;;;;;4992851;28;20611;-84
2022/04/20 04:14:50;;;;;;;0.70;0.70;;;0.60;99.90;;;;;;4994390;28;20199;-84
2022/04/20 04:17:16;;;;;;;0.70;0.70;;;0.70;99.90;;;;;;4989624;28;20319;-84
2022/04/20 04:19:42;;;;;;;0.80;0.80;;;0.70;99.90;;;;;;4980648;28;20287;-84
2022/04/20 04:22:08;;;;;;;0.70;0.70;;;0.70;99.90;;;;;;4965328;28;20204;-84
2022/04/20 04:24:36;;;;;;;0.90;0.90;;;0.80;99.90;;;;;;4957333;28;20200;-84
2022/04/20 04:27:05;;;;;;;0.80;0.80;;;0.80;99.90;;;;;;4974594;28;20274;-85
2022/04/20 04:29:31;;;;;;;0.80;0.80;;;0.90;99.90;;;;;;4974716;28;20543;-84
2022/04/20 04:31:58;;;;;;;0.80;0.80;;;0.90;99.90;;;;;;4956489;28;20637;-85
2022/04/20 04:34:24;;;;;;;0.90;0.90;;;1.00;99.90;;;;;;4957099;28;20648;-83
2022/04/20 04:36:54;;;;;;;0.80;0.80;;;1.10;99.90;;;;;;4974960;28;20199;-84
2022/04/20 04:39:21;;;;;;;0.80;0.80;;;1.20;99.90;;;;;;4957328;28;20634;-84
2022/04/20 04:41:53;;;;;;;0.80;0.80;;;1.20;99.90;;;;;;4957329;28;20235;-84
2022/04/20 04:44:19;;;;;;;0.50;0.50;;;1.30;99.90;;;;;;4957394;28;20219;-84
2022/04/20 04:49:31;;;;;;;0.80;0.80;;;1.50;99.90;;;;;;4974871;28;20227;-84
2022/04/20 04:51:58;;;;;;;1.20;1.10;;;1.60;99.90;;;;;;4957074;28;20325;-84
2022/04/20 04:54:25;;;;;;;1.00;1.00;;;1.70;99.90;;;;;;4974223;28;20199;-84
2022/04/20 04:56:52;;;;;;;0.77;0.77;;;1.80;99.90;;;;;;4957766;28;20204;-86
2022/04/20 04:59:18;;;;;;;0.80;0.80;;;1.90;99.90;;;;;;4973198;28;20206;-83
2022/04/20 05:01:44;;;;;;;1.15;1.05;;;2.00;99.90;;;;;;4974299;28;20200;-84
2022/04/20 05:04:11;;;;;;;1.27;1.17;;;2.20;99.90;;;;;;4966373;28;20589;-84
2022/04/20 05:06:37;;;;;;;0.80;0.80;;;2.30;99.90;;;;;;4952949;28;20672;-83
2022/04/20 05:09:03;;;;;;;0.60;0.60;;;2.50;99.90;;;;;;4973417;28;20222;-84
2022/04/20 05:11:29;;;;;;;0.60;0.60;;;2.70;99.90;;;;;;4956464;28;20679;-83
2022/04/20 05:13:55;;;;;;;0.70;0.70;;;2.80;99.90;;;;;;4956748;28;20224;-84
2022/04/20 05:16:21;;;;;;;0.75;0.75;;;2.90;99.90;;;;;;4956374;28;20287;-84
2022/04/20 05:18:47;;;;;;;0.63;0.63;;;3.10;99.90;;;;;;4974392;28;20200;-84
2022/04/20 05:21:13;;;;;;;0.95;0.95;;;3.20;99.90;;;;;;4956987;28;20563;-84
2022/04/20 05:23:39;;;;;;;0.70;0.70;;;3.30;99.90;;;;;;4973030;28;20211;-84
2022/04/20 05:26:04;;;;;;;1.35;1.25;;;3.40;99.90;;;;;;4973051;28;20216;-84
2022/04/20 05:28:30;;;;;;;3.13;1.67;;;3.50;99.90;;;;;;4972890;28;20193;-85
2022/04/20 05:30:55;;;;;;;0.70;0.70;;;3.70;99.90;;;;;;4974309;28;20248;-84
2022/04/20 05:33:21;;;;;;;0.60;0.60;;;3.80;99.90;;;;;;4972760;28;20200;-81
2022/04/20 05:35:47;;;;;;;1.00;1.00;;;4.00;99.90;;;;;;4972972;28;20224;-81
2022/04/20 05:43:41;;;;;;;0.90;0.90;;;4.40;99.90;;;;;;4977663;28;20204;-81
2022/04/20 05:46:07;;;;;;;1.40;1.10;;;4.60;99.90;;;;;;4976137;28;20219;-81
2022/04/20 05:48:33;;;;;;;4.82;1.48;;;4.80;99.90;;;;;;4977073;28;20196;-81
2022/04/20 05:51:00;;;;;;;0.63;0.63;;;5.00;99.90;;;;;;4960094;28;20203;-81
2022/04/20 05:53:25;;;;;;;0.82;0.82;;;5.20;99.90;;;;;;4959096;28;20196;-82
2022/04/20 05:55:51;;;;;;;0.75;0.75;;;5.40;99.90;;;;;;4977159;28;20259;-82
2022/04/20 05:58:17;;;;;;;0.70;0.70;;;5.70;99.90;;;;;;4960150;28;20206;-83
2022/04/20 06:00:43;;;;;;;0.70;0.70;;;5.90;99.90;;;;;;4959572;28;20212;-83
2022/04/20 06:03:09;;;;;;;0.70;0.70;;;6.10;99.90;;;;;;4977141;28;20200;-84
2022/04/20 06:05:34;;;;;;;0.70;0.70;;;6.30;99.90;;;;;;4975565;28;20211;-83
2022/04/20 06:08:00;;;;;;;1.23;1.20;;;6.50;99.90;;;;;;4959724;28;20656;-85
2022/04/20 06:10:29;;;;;;;0.80;0.80;;;6.70;99.90;;;;;;4975298;28;20199;-84
2022/04/20 06:12:55;;;;;;;0.80;0.80;;;6.90;99.90;;;;;;4964703;28;20237;-84
2022/04/20 06:15:21;;;;;;;24.08;3.70;;;7.10;99.90;;;;;;4975408;28;20215;-84
2022/04/20 06:17:47;;;;;;;0.80;0.80;;;7.30;99.90;;;;;;4959505;28;20232;-84
2022/04/20 06:20:12;;;;;;;0.60;0.60;;;7.40;99.90;;;;;;4960192;28;20200;-84
2022/04/20 06:22:38;;;;;;;0.70;0.70;;;7.60;99.90;;;;;;4956230;29;20195;-84
2022/04/20 06:25:04;;;;;;;0.70;0.70;;;7.80;99.90;;;;;;4957767;29;20199;-84
2022/04/20 06:27:31;;;;;;;0.60;0.60;;;8.00;99.90;;;;;;4955104;28;20718;-84
2022/04/20 06:29:57;;;;;;;0.80;0.80;;;8.10;99.90;;;;;;4957612;28;20621;-84
2022/04/20 06:32:27;;;;;;;1.23;1.13;;;8.30;99.90;;;;;;4958998;28;20196;-84
2022/04/20 06:34:54;;;;;;;0.70;0.70;;;8.40;99.90;;;;;;4976651;28;20215;-84
2022/04/20 06:37:22;;;;;;;0.70;0.70;;;8.60;99.90;;;;;;4976394;28;20247;-84
2022/04/20 06:39:49;;;;;;;0.60;0.60;;;8.70;99.90;;;;;;4958887;28;20267;-83
2022/04/20 06:42:15;;;;;;;0.85;0.85;;;8.90;99.90;;;;;;4958657;28;20208;-84
2022/04/20 06:44:41;;;;;;;0.80;0.80;;;9.00;99.90;;;;;;4956381;28;20203;-84
2022/04/20 06:47:07;;;;;;;0.77;0.77;;;9.10;99.90;;;;;;4974973;28;20216;-84
2022/04/20 06:49:33;;;;;;;1.30;1.20;;;9.20;99.90;;;;;;4958927;28;20206;-84
2022/04/20 07:00:11;;;;;;;0.70;0.70;;;9.70;99.90;;;;;;4995962;28;20210;-83
2022/04/20 07:02:37;;;;;;;0.70;0.70;;;9.90;99.90;;;;;;4995368;28;20734;-84
2022/04/20 07:05:05;;;;;;;0.60;0.60;;;10.10;99.90;;;;;;4995721;28;20227;-84
2022/04/20 07:07:30;;;;;;;0.60;0.60;;;10.30;99.90;;;;;;4992808;28;20278;-84
2022/04/20 07:09:56;;;;;;;0.60;0.60;;;10.40;99.90;;;;;;4975963;28;20200;-83
2022/04/20 07:12:22;;;;;;;0.60;0.60;;;10.60;99.90;;;;;;4974450;28;20200;-83
2022/04/20 07:14:47;;;;;;;1.75;1.45;;;10.80;99.90;;;;;;4973804;28;20192;-84
2022/04/20 07:17:13;;;;;;;0.95;0.77;;;11.00;99.90;;;;;;4974198;28;20595;-83
2022/04/20 07:19:39;;;;;;;0.95;0.95;;;11.20;99.90;;;;;;4958513;28;20576;-84
2022/04/20 07:22:04;;;;;;;0.50;0.50;;;11.40;99.90;;;;;;4975441;28;20678;-83
2022/04/20 07:24:31;;;;;;;0.70;0.70;;;11.60;99.90;;;;;;4975603;28;20192;-83
2022/04/20 07:26:56;;;;;;;0.80;0.80;;;11.80;99.90;;;;;;4974262;28;20294;-83
2022/04/20 07:29:22;;;;;;;0.63;0.63;;;12.00;99.90;;;;;;4975646;28;20223;-83
2022/04/20 07:31:48;;;;;;;0.60;0.60;;;12.10;99.90;;;;;;4975773;28;20271;-85
2022/04/20 07:34:13;;;;;;;0.50;0.50;;;12.10;99.90;;;;;;4974798;28;20193;-83
2022/04/20 07:36:39;;;;;;;0.50;0.50;;;12.10;99.90;;;;;;4974444;28;20250;-83
2022/04/20 07:39:05;;;;;;;0.50;0.50;;;12.00;99.90;;;;;;4975538;28;20192;-83
2022/04/20 07:41:30;;;;;;;0.60;0.60;;;12.00;99.90;;;;;;4973704;28;20235;-83
2022/04/20 07:43:56;;;;;;;0.50;0.50;;;12.10;99.90;;;;;;4975181;28;20184;-83
2022/04/20 07:46:22;;;;;;;1.13;0.98;;;12.30;99.90;;;;;;4957332;28;20262;-83
2022/04/20 07:48:49;;;;;;;0.60;0.60;;;12.50;99.90;;;;;;4957782;28;20219;-83
2022/04/20 07:51:17;;;;;;;0.80;0.80;;;12.60;99.90;;;;;;4974065;28;20204;-83
2022/04/20 07:53:42;;;;;;;0.57;0.57;;;12.60;99.90;;;;;;4972048;28;20203;-83
2022/04/20 07:56:09;;;;;;;0.50;0.50;;;12.80;99.90;;;;;;4993457;28;20210;-83
2022/04/20 07:58:34;;;;;;;0.50;0.50;;;13.20;99.90;;;;;;4993250;28;20262;-83
2022/04/20 08:01:25;;;;;;;0.50;0.50;;;13.50;99.90;;;;;;4979937;28;20204;-83
2022/04/20 08:03:51;;;;;;;0.40;0.40;;;13.50;99.90;;;;;;4975172;28;20327;-83
2022/04/20 08:06:17;;;;;;;0.43;0.43;;;13.50;99.90;;;;;;4973633;28;20563;-83
2022/04/20 08:08:43;;;;;;;0.50;0.50;;;13.60;99.90;;;;;;4973652;28;20193;-83
2022/04/20 08:11:09;;;;;;;0.50;0.50;;;13.70;99.90;;;;;;4974861;28;20200;-83
2022/04/20 08:16:20;;;;;;;0.50;0.50;;;13.90;99.90;;;;;;4988128;28;20568;-83
2022/04/20 08:18:46;;;;;;;0.50;0.50;;;14.00;99.90;;;;;;4976818;28;20208;-83
2022/04/20 08:21:12;;;;;;;0.55;0.55;;;14.30;99.90;;;;;;4976828;28;20543;-84
2022/04/20 08:23:37;;;;;;;0.43;0.43;;;14.50;99.90;;;;;;4993976;28;20548;-84
2022/04/20 08:26:03;;;;;;;0.50;0.50;;;14.70;99.90;;;;;;4994226;28;20222;-84
2022/04/20 08:28:30;;;;;;;0.40;0.40;;;14.80;99.90;;;;;;4992809;28;20256;-84
2022/04/20 08:30:56;;;;;;;0.40;0.40;;;14.90;99.90;;;;;;4992133;28;20213;-84
2022/04/20 08:33:22;;;;;;;0.70;0.65;;;15.20;99.90;;;;;;4993959;28;20655;-84
2022/04/20 08:35:48;;;;;;;0.40;0.40;;;15.10;99.90;;;;;;4992900;28;20251;-83
2022/04/20 08:38:14;;;;;;;0.50;0.50;;;15.20;99.90;;;;;;4992794;28;20195;-84
2022/04/20 08:40:40;;;;;;;0.50;0.50;;;15.30;99.90;;;;;;4976649;28;20207;-84
2022/04/20 08:43:06;;;;;;;1.20;0.93;;;15.60;99.90;;;;;;4976930;28;20302;-84
2022/04/20 08:45:37;;;;;;;0.40;0.40;;;15.80;99.90;;;;;;4976490;28;20227;-84
2022/04/20 08:48:04;;;;;;;0.40;0.40;;;15.90;99.90;;;;;;4977032;28;20747;-84
2022/04/20 08:50:30;;;;;;;0.40;0.40;;;16.00;99.90;;;;;;4976493;28;20646;-83
2022/04/20 08:52:58;;;;;;;0.85;0.57;;;16.20;99.90;;;;;;4993149;28;20196;-82
2022/04/20 08:55:24;;;;;;;2.38;1.25;;;16.40;99.00;;;;;;4992527;28;20571;-84
2022/04/20 08:57:54;;;;;;;0.30;0.30;;;16.50;99.20;;;;;;4992785;28;20331;-83
2022/04/20 09:00:23;;;;;;;0.30;0.30;;;16.60;98.70;;;;;;4991830;28;20667;-84
2022/04/20 09:02:57;;;;;;;0.40;0.40;;;16.60;97.60;;;;;;4994327;28;20247;-83
2022/04/20 09:05:24;;;;;;;0.30;0.30;;;16.90;96.40;;;;;;4993933;28;20219;-84
2022/04/20 09:07:50;;;;;;;0.45;0.45;;;16.90;96.30;;;;;;4977367;28;20196;-82
2022/04/20 09:10:19;;;;;;;0.68;0.60;;;17.10;97.40;;;;;;4993349;28;20202;-83
2022/04/20 09:12:46;;;;;;;0.30;0.30;;;17.40;96.80;;;;;;4994433;28;20188;-84
2022/04/20 09:15:27;;;;;;;0.50;0.50;;;17.70;95.00;;;;;;4980588;28;20681;-83
2022/04/20 09:17:52;;;;;;;0.38;0.38;;;17.90;94.00;;;;;;4997256;28;20223;-85
2022/04/20 09:20:19;;;;;;;0.30;0.30;;;18.20;93.30;;;;;;4997358;28;20680;-83
2022/04/20 09:23:14;;;;;;;0.28;0.28;;;18.20;94.20;;;;;;4976499;28;20192;-85
2022/04/20 09:25:47;;;;;;;0.47;0.47;;;18.70;92.40;;;;;;4977937;28;20266;-85
2022/04/20 09:28:12;;;;;;;0.28;0.28;;;18.90;95.30;;;;;;4977996;28;20199;-84
2022/04/20 09:30:40;;;;;;;0.20;0.20;;;19.30;92.60;;;;;;4976653;28;20571;-82
2022/04/20 09:33:07;;;;;;;0.20;0.20;;;19.90;90.10;;;;;;4977829;28;20192;-81
2022/04/20 09:35:46;;;;;;;0.35;0.35;;;19.80;86.90;;;;;;4992191;28;20204;-85
2022/04/20 09:38:13;;;;;;;0.43;0.43;;;19.60;89.20;;;;;;4977924;28;20565;-84
2022/04/20 09:40:40;;;;;;;0.65;0.40;;;19.30;86.70;;;;;;4992812;28;20252;-85
2022/04/20 09:43:15;;;;;;;0.30;0.30;;;19.00;90.80;;;;;;4992887;28;20690;-90
2022/04/20 09:45:41;;;;;;;0.50;0.50;;;18.80;88.00;;;;;;4995632;28;20246;-85
2022/04/20 09:51:12;;;;;;;0.40;0.40;;;19.50;89.00;;;;;;4997251;28;20273;-85
2022/04/20 09:53:44;;;;;;;0.30;0.30;;;19.60;85.40;;;;;;4996888;28;20740;-85
2022/04/20 09:56:27;;;;;;;0.20;0.20;;;19.30;87.20;;;;;;4996788;28;20183;-83
2022/04/20 09:59:00;;;;;;;0.28;0.28;;;19.50;85.30;;;;;;4995614;28;20203;-85
2022/04/20 10:01:34;;;;;;;0.25;0.25;;;19.20;88.30;;;;;;4996512;28;20204;-86
2022/04/20 10:04:05;;;;;;;0.25;0.25;;;19.50;87.20;;;;;;4979445;28;20665;-86
2022/04/20 10:06:31;;;;;;;0.55;0.43;;;19.60;84.70;;;;;;4996622;28;20234;-82
2022/04/20 10:08:58;;;;;;;0.38;0.38;;;19.90;86.30;;;;;;4979562;28;20336;-85
2022/04/20 10:11:24;;;;;;;0.20;0.20;;;20.40;83.30;;;;;;4996561;28;20198;-85
2022/04/20 10:16:52;;;;;;;0.30;0.30;;;20.40;82.80;;;;;;4996490;28;20226;-87
2022/04/20 10:19:26;;;;;;;0.38;0.38;;;20.00;84.40;;;;;;4996714;28;20195;-86
2022/04/20 10:21:54;;;;;;;0.57;0.57;;;20.10;84.30;;;;;;4979216;28;20207;-86
2022/04/20 10:24:25;;;;;;;0.45;0.32;;;20.10;82.40;;;;;;4976373;28;20203;-85
2022/04/20 10:26:52;;;;;;;0.30;0.30;;;20.20;83.90;;;;;;4978870;28;20236;-86
2022/04/20 10:29:36;;;;;;;0.47;0.30;;;20.20;84.30;;;;;;4977813;28;20196;-84
2022/04/20 10:32:09;;;;;;;0.20;0.20;;;20.90;83.00;;;;;;4975704;28;20212;-82
2022/04/20 10:34:37;;;;;;;0.30;0.30;;;21.60;80.30;;;;;;4975262;28;20200;-85
2022/04/20 10:37:04;;;;;;;0.20;0.20;;;21.50;80.30;;;;;;4975180;28;20575;-83
2022/04/20 10:39:39;;;;;;;0.82;0.43;;;21.60;80.90;;;;;;4958488;28;20203;-84
2022/04/20 10:42:11;;;;;;;0.50;0.50;;;21.90;80.10;;;;;;4975940;28;20713;-84
2022/04/20 10:44:55;;;;;;;0.20;0.20;;;22.20;78.00;;;;;;4975203;28;20196;-87
2022/04/20 10:47:25;;;;;;;0.20;0.20;;;22.90;75.80;;;;;;4976110;28;20212;-85
2022/04/20 10:49:51;;;;;;;0.45;0.40;;;22.60;73.60;;;;;;4993508;28;20196;-85
2022/04/20 10:52:35;;;;;;;0.20;0.20;;;22.00;77.70;;;;;;4976312;28;20192;-85
2022/04/20 10:55:00;;;;;;;0.45;0.45;;;22.00;74.80;;;;;;4975257;28;20199;-84
2022/04/20 10:57:37;;;;;;;0.60;0.47;;;21.80;75.10;;;;;;4989332;28;20575;-84
2022/04/20 11:00:19;;;;;;;0.20;0.20;;;21.40;76.60;;;;;;4978185;28;20694;-85
2022/04/20 11:03:00;;;;;;;0.20;0.20;;;21.20;78.50;;;;;;4994455;28;20205;-85
2022/04/20 11:05:26;;;;;;;0.47;0.47;;;21.10;76.20;;;;;;4995507;28;20199;-85
2022/04/20 11:08:14;;;;;;;0.30;0.30;;;21.20;79.00;;;;;;4995651;28;20269;-85
2022/04/20 11:10:42;;;;;;;0.30;0.30;;;21.50;76.90;;;;;;4995759;28;20191;-85
2022/04/20 11:19:08;;;;;;;0.50;0.50;;;21.50;77.40;;;;;;4955901;28;20259;-84
2022/04/20 11:21:34;;;;;;;0.20;0.20;;;22.10;76.40;;;;;;4955518;28;20656;-85
2022/04/20 11:24:08;;;;;;;1.55;1.10;;;22.30;73.30;;;;;;4956292;28;20205;-85
2022/04/20 11:26:51;;;;;;;0.25;0.25;;;22.30;73.40;;;;;;4956494;28;20641;-85
2022/04/20 11:29:25;;;;;;;0.30;0.30;;;22.40;75.00;;;;;;4955406;28;20196;-85
2022/04/20 11:31:58;;;;;;;0.32;0.32;;;22.80;72.30;;;;;;4956407;28;20204;-86
2022/04/20 11:34:26;;;;;;;0.93;0.28;;;23.20;74.00;;;;;;4956289;28;20193;-85
2022/04/20 11:36:54;;;;;;;0.20;0.20;;;23.10;72.50;;;;;;4954675;28;20196;-84
2022/04/20 11:39:21;;;;;;;0.20;0.20;;;22.80;70.60;;;;;;4971042;28;20217;-84
2022/04/20 11:41:55;;;;;;;0.20;0.20;;;22.80;73.00;;;;;;4956510;29;20212;-84
2022/04/20 11:44:32;;;;;;;0.20;0.20;;;22.40;73.00;;;;;;4956156;29;20252;-84
2022/04/20 11:47:02;;;;;;;0.52;0.52;;;22.00;70.00;;;;;;4954811;28;20216;-82
2022/04/20 11:49:33;;;;;;;0.28;0.28;;;22.30;73.30;;;;;;4954762;28;20244;-85
2022/04/20 11:51:59;;;;;;;2.20;0.60;;;22.50;73.80;;;;;;4954854;28;20200;-84
2022/04/20 11:54:27;;;;;;;0.17;0.17;;;22.70;71.60;;;;;;4954527;29;20222;-84
2022/04/20 11:56:53;;;;;;;0.30;0.30;;;22.40;73.10;;;;;;4954802;28;20200;-85
2022/04/20 11:59:21;;;;;;;0.30;0.30;;;22.70;71.10;;;;;;4954849;28;20228;-84
2022/04/20 12:01:47;;;;;;;0.40;0.40;;;22.90;70.50;;;;;;4956019;29;20199;-85
2022/04/20 12:04:18;;;;;;;0.20;0.20;;;22.80;71.60;;;;;;4955907;29;20714;-85
2022/04/20 12:06:49;;;;;;;0.20;0.20;;;23.00;71.00;;;;;;4970911;28;20576;-85
2022/04/20 12:09:18;;;;;;;0.20;0.20;;;23.10;68.10;;;;;;4955966;29;20193;-83
2022/04/20 12:11:51;;;;;;;0.30;0.30;;;22.50;71.00;;;;;;4955872;28;20660;-81
2022/04/20 12:14:17;;;;;;;0.20;0.20;;;22.40;69.90;;;;;;4956020;29;20203;-81
2022/04/20 12:16:46;;;;;;;0.20;0.20;;;22.70;71.00;;;;;;4961954;28;20227;-81
2022/04/20 12:19:12;;;;;;;0.20;0.20;;;22.70;68.30;;;;;;4994579;28;20226;-82
2022/04/20 12:21:42;;;;;;;0.35;0.30;;;23.20;68.60;;;;;;4977047;28;21568;-82
2022/04/20 12:24:22;;;;;;;0.40;0.40;;;23.40;66.60;;;;;;4994243;28;20199;-82
2022/04/20 12:26:52;;;;;;;0.20;0.20;;;23.80;67.80;;;;;;4993386;28;20242;-82
2022/04/20 12:29:23;;;;;;;0.20;0.20;;;23.70;66.50;;;;;;4976978;28;20199;-81
2022/04/20 12:31:51;;;;;;;0.20;0.20;;;23.50;66.00;;;;;;4976836;28;20298;-82
2022/04/20 12:34:19;;;;;;;0.20;0.20;;;23.10;67.70;;;;;;4985375;28;20577;-81
2022/04/20 12:36:51;;;;;;;0.10;0.10;;;22.90;66.80;;;;;;4974935;28;20302;-81
2022/04/20 12:39:32;;;;;;;0.20;0.20;;;23.40;68.00;;;;;;4989889;28;20562;-82
2022/04/20 12:42:02;;;;;;;0.45;0.45;;;23.60;67.40;;;;;;4990018;28;20203;-82
2022/04/20 12:44:39;;;;;;;0.20;0.20;;;23.60;65.40;;;;;;4974768;28;20278;-82
2022/04/20 12:47:10;;;;;;;0.10;0.10;;;23.60;65.50;;;;;;4959389;28;20262;-82
2022/04/20 12:49:37;;;;;;;0.38;0.30;;;23.30;66.70;;;;;;4987277;28;20286;-82
2022/04/20 12:52:12;;;;;;;0.20;0.20;;;23.40;66.50;;;;;;4980718;28;20249;-83
2022/04/20 12:54:39;;;;;;;0.57;0.57;;;23.50;66.70;;;;;;4997920;28;20190;-82
2022/04/20 13:03:16;;;;;;;1.60;0.40;;;22.80;68.30;;;;;;4998295;28;20314;-82
2022/04/20 13:05:44;;;;;;;0.20;0.20;;;23.10;66.50;;;;;;4997777;28;20191;-82
2022/04/20 13:08:12;;;;;;;0.20;0.20;;;23.20;66.70;;;;;;4980439;28;20199;-82
2022/04/20 13:10:39;;;;;;;0.43;0.40;;;23.30;65.10;;;;;;4997664;28;20203;-81
2022/04/20 13:13:05;;;;;;;0.10;0.10;;;23.00;66.00;;;;;;4997960;28;20191;-82
2022/04/20 13:15:31;;;;;;;0.20;0.20;;;22.80;68.00;;;;;;4996356;28;20223;-82
2022/04/20 13:17:58;;;;;;;0.20;0.20;;;23.10;68.00;;;;;;4997642;28;20230;-82
2022/04/20 13:20:28;;;;;;;0.20;0.20;;;23.10;64.60;;;;;;4997627;28;20201;-82
2022/04/20 13:22:54;;;;;;;0.22;0.22;;;23.20;66.70;;;;;;4976796;28;20192;-82
2022/04/20 13:28:05;;;;;;;0.30;0.30;;;22.60;66.50;;;;;;4981409;28;20251;-82
2022/04/20 13:30:35;;;;;;;0.35;0.35;;;22.70;66.70;;;;;;4984933;28;20353;-82
2022/04/20 13:33:02;;;;;;;0.20;0.20;;;22.70;65.50;;;;;;4996052;28;20199;-82
2022/04/20 13:35:28;;;;;;;0.20;0.20;;;22.60;66.10;;;;;;4995359;28;20282;-83
2022/04/20 13:37:55;;;;;;;0.20;0.20;;;22.60;65.30;;;;;;4996238;28;20723;-81